Aviation Digital Data Service (ADDS)

Output produced by METARs form (0427 UTC 26 May 2018)
found at http://www.aviationweather.gov/adds/metars/
 
KXNA 252325Z 2600/2624 20005KT P6SM SCT250 
     FM260300 VRB03KT P6SM SCT250